createdAt,value
2019-03-31T00:01:53.542Z,7.20
2019-03-31T00:04:24.105Z,7.20
2019-03-31T00:06:54.360Z,7.00
2019-03-31T00:09:24.665Z,7.10
2019-03-31T00:11:57.739Z,7.10
2019-03-31T00:14:27.838Z,7.10
2019-03-31T00:16:58.019Z,7.20
2019-03-31T00:19:28.465Z,7.20
2019-03-31T00:21:59.092Z,7.20
2019-03-31T00:24:29.149Z,7.10
2019-03-31T00:26:59.175Z,7.10
2019-03-31T00:29:30.134Z,7.10
2019-03-31T00:32:00.204Z,7.10
2019-03-31T00:34:30.640Z,7.00
2019-03-31T00:37:00.721Z,7.00
2019-03-31T00:39:30.723Z,7.00
2019-03-31T00:42:00.979Z,7.10
2019-03-31T00:44:31.460Z,7.10
2019-03-31T00:47:02.289Z,7.10
2019-03-31T00:49:32.530Z,7.10
2019-03-31T00:52:03.154Z,7.10
2019-03-31T00:54:33.129Z,7.00
2019-03-31T00:57:03.247Z,6.80
2019-03-31T00:59:33.364Z,6.80
2019-03-31T01:02:09.090Z,6.70
2019-03-31T01:04:40.585Z,6.70
2019-03-31T01:07:10.615Z,6.70
2019-03-31T01:09:42.623Z,6.60
2019-03-31T01:12:13.071Z,6.60
2019-03-31T01:14:43.677Z,6.60
2019-03-31T01:17:18.424Z,6.60
2019-03-31T01:19:46.740Z,6.60
2019-03-31T01:22:16.772Z,6.50
2019-03-31T01:24:46.699Z,6.40
2019-03-31T01:27:20.317Z,6.40
2019-03-31T01:29:50.263Z,6.40
2019-03-31T01:32:20.781Z,6.40
2019-03-31T01:34:50.778Z,6.30
2019-03-31T01:37:20.756Z,6.30
2019-03-31T01:39:50.834Z,6.30
2019-03-31T01:42:21.742Z,6.30
2019-03-31T01:44:51.763Z,6.40
2019-03-31T01:47:21.814Z,6.40
2019-03-31T01:49:51.758Z,6.40
2019-03-31T01:52:21.848Z,6.20
2019-03-31T01:54:51.946Z,6.10
2019-03-31T01:57:21.969Z,6.20
2019-03-31T01:59:52.968Z,6.10
2019-03-31T02:02:27.469Z,6.10
2019-03-31T02:04:57.842Z,6.00
2019-03-31T02:07:27.816Z,6.00
2019-03-31T02:09:57.860Z,6.00
2019-03-31T02:12:27.884Z,6.00
2019-03-31T02:14:57.967Z,6.10
2019-03-31T02:17:27.932Z,6.00
2019-03-31T02:19:57.946Z,5.90
2019-03-31T02:22:27.911Z,5.90
2019-03-31T02:24:57.832Z,5.90
2019-03-31T02:27:27.786Z,5.90
2019-03-31T02:29:57.799Z,5.90
2019-03-31T02:32:27.809Z,6.00
2019-03-31T02:34:58.087Z,6.00
2019-03-31T02:37:28.040Z,6.00
2019-03-31T02:39:58.033Z,5.90
2019-03-31T02:42:28.135Z,5.80
2019-03-31T02:44:58.155Z,5.70
2019-03-31T02:47:28.117Z,5.70
2019-03-31T02:49:58.187Z,5.60
2019-03-31T02:52:28.250Z,5.60
2019-03-31T02:54:58.514Z,5.50
2019-03-31T02:57:28.647Z,5.50
2019-03-31T03:00:00.484Z,5.50
2019-03-31T03:02:41.690Z,5.50
2019-03-31T03:05:18.982Z,5.40
2019-03-31T03:07:39.481Z,5.50
2019-03-31T03:10:09.586Z,5.40
2019-03-31T03:12:42.210Z,5.50
2019-03-31T03:15:14.069Z,5.40
2019-03-31T03:17:44.057Z,5.40
2019-03-31T03:20:13.976Z,5.30
2019-03-31T03:22:44.039Z,5.30
2019-03-31T03:25:14.152Z,5.20
2019-03-31T03:27:44.107Z,5.10
2019-03-31T03:30:14.198Z,5.10
2019-03-31T03:33:12.464Z,5.00
2019-03-31T03:35:16.292Z,5.00
2019-03-31T03:37:46.294Z,5.10
2019-03-31T03:40:16.334Z,5.10
2019-03-31T03:42:46.416Z,5.10
2019-03-31T03:45:16.414Z,5.10
2019-03-31T03:47:46.374Z,5.10
2019-03-31T03:50:16.375Z,5.20
2019-03-31T03:52:46.331Z,5.20
2019-03-31T03:55:16.339Z,5.30
2019-03-31T03:57:46.299Z,5.40
2019-03-31T04:00:17.009Z,5.40
2019-03-31T04:02:46.979Z,5.50
2019-03-31T04:05:17.095Z,5.40
2019-03-31T04:07:47.107Z,5.50
2019-03-31T04:11:07.155Z,5.40
2019-03-31T04:13:37.130Z,5.30
2019-03-31T04:16:07.241Z,5.10
2019-03-31T04:18:37.252Z,5.10
2019-03-31T04:21:07.175Z,5.10
2019-03-31T04:23:37.150Z,5.20
2019-03-31T04:26:07.199Z,5.30
2019-03-31T04:28:37.282Z,5.30
2019-03-31T04:31:07.341Z,5.20
2019-03-31T04:33:50.133Z,5.30
2019-03-31T04:36:08.956Z,5.30
2019-03-31T04:38:38.998Z,5.30
2019-03-31T04:41:09.103Z,5.20
2019-03-31T04:43:39.101Z,5.20
2019-03-31T04:46:09.217Z,5.20
2019-03-31T04:48:39.269Z,5.20
2019-03-31T04:51:09.271Z,5.20
2019-03-31T04:53:39.177Z,5.20
2019-03-31T04:56:09.394Z,5.10
2019-03-31T04:58:39.882Z,5.10
2019-03-31T05:01:09.856Z,5.10
2019-03-31T05:03:39.867Z,5.30
2019-03-31T05:06:10.434Z,5.40
2019-03-31T05:08:40.417Z,5.40
2019-03-31T05:11:10.422Z,5.40
2019-03-31T05:13:40.484Z,5.40
2019-03-31T05:16:10.507Z,5.50
2019-03-31T05:18:40.490Z,5.60
2019-03-31T05:21:10.558Z,5.60
2019-03-31T05:23:40.682Z,5.70
2019-03-31T05:26:10.631Z,5.80
2019-03-31T05:28:43.957Z,5.90
2019-03-31T05:31:12.475Z,6.00
2019-03-31T05:33:42.415Z,6.00
2019-03-31T05:36:12.524Z,6.00
2019-03-31T05:38:42.871Z,6.10
2019-03-31T05:41:12.852Z,6.00
2019-03-31T05:43:42.857Z,5.90
2019-03-31T05:46:12.942Z,5.80
2019-03-31T05:48:43.247Z,5.90
2019-03-31T05:51:13.401Z,5.90
2019-03-31T05:53:43.471Z,6.00
2019-03-31T05:56:13.704Z,6.00
2019-03-31T05:58:43.841Z,6.00
2019-03-31T06:01:13.814Z,5.90
2019-03-31T06:03:43.784Z,5.90
2019-03-31T06:06:13.943Z,5.90
2019-03-31T06:08:44.031Z,5.90
2019-03-31T06:11:14.182Z,5.90
2019-03-31T06:13:44.163Z,6.00
2019-03-31T06:16:14.295Z,6.20
2019-03-31T06:18:44.291Z,6.30
2019-03-31T06:21:14.291Z,6.30
2019-03-31T06:23:44.255Z,6.40
2019-03-31T06:26:14.288Z,6.40
2019-03-31T06:28:44.275Z,6.40
2019-03-31T06:31:14.271Z,6.40
2019-03-31T06:33:44.254Z,6.40
2019-03-31T06:36:14.654Z,6.40
2019-03-31T06:38:44.595Z,6.50
2019-03-31T06:41:14.626Z,6.50
2019-03-31T06:43:44.710Z,6.50
2019-03-31T06:46:14.746Z,6.40
2019-03-31T06:48:44.678Z,6.60
2019-03-31T06:51:17.025Z,6.70
2019-03-31T06:53:46.527Z,6.90
2019-03-31T06:56:16.512Z,6.90
2019-03-31T06:58:46.490Z,6.90
2019-03-31T07:01:16.589Z,6.80
2019-03-31T07:03:50.246Z,6.90
2019-03-31T07:06:20.303Z,6.90
2019-03-31T07:08:50.332Z,7.00
2019-03-31T07:11:20.642Z,7.00
2019-03-31T07:13:50.735Z,6.90
2019-03-31T07:16:20.861Z,6.90
2019-03-31T07:18:50.891Z,6.90
2019-03-31T07:21:20.924Z,6.90
2019-03-31T07:23:50.947Z,7.00
2019-03-31T07:26:21.070Z,7.10
2019-03-31T07:28:51.497Z,7.30
2019-03-31T07:31:21.526Z,7.40
2019-03-31T07:33:51.566Z,7.30
2019-03-31T07:36:21.753Z,7.30
2019-03-31T07:38:51.953Z,7.50
2019-03-31T07:41:22.166Z,7.70
2019-03-31T07:43:52.402Z,7.80
2019-03-31T07:46:22.515Z,8.00
2019-03-31T07:48:52.557Z,8.10
2019-03-31T07:51:22.545Z,8.30
2019-03-31T07:53:52.582Z,8.40
2019-03-31T07:56:22.640Z,8.50
2019-03-31T07:58:52.701Z,8.40
2019-03-31T08:01:22.827Z,8.40
2019-03-31T08:03:52.900Z,8.50
2019-03-31T08:06:22.954Z,8.80
2019-03-31T08:08:53.476Z,8.90
2019-03-31T08:11:23.630Z,9.30
2019-03-31T08:13:55.364Z,9.50
2019-03-31T08:16:25.510Z,9.80
2019-03-31T08:18:55.545Z,9.80
2019-03-31T08:21:25.885Z,10.00
2019-03-31T08:23:56.000Z,10.20
2019-03-31T08:26:26.113Z,10.10
2019-03-31T08:28:58.607Z,10.00
2019-03-31T08:31:28.130Z,10.10
2019-03-31T08:33:58.336Z,10.20
2019-03-31T08:36:28.434Z,10.20
2019-03-31T08:38:58.885Z,10.30
2019-03-31T08:41:29.030Z,10.30
2019-03-31T08:43:59.133Z,10.00
2019-03-31T08:46:29.352Z,9.70
2019-03-31T08:48:59.567Z,9.70
2019-03-31T08:51:29.831Z,9.70
2019-03-31T08:53:59.915Z,9.50
2019-03-31T08:56:30.126Z,9.60
2019-03-31T08:59:00.257Z,9.70
2019-03-31T09:01:30.367Z,9.80
2019-03-31T09:04:01.009Z,9.90
2019-03-31T09:06:32.797Z,9.80
2019-03-31T09:09:02.837Z,9.60
2019-03-31T09:11:32.904Z,9.70
2019-03-31T09:14:03.083Z,9.60
2019-03-31T09:16:33.204Z,9.50
2019-03-31T09:19:03.210Z,9.50
2019-03-31T09:21:33.315Z,9.50
2019-03-31T09:24:04.644Z,9.50
2019-03-31T09:26:34.674Z,9.70
2019-03-31T09:29:04.945Z,9.70
2019-03-31T09:31:35.066Z,10.00
2019-03-31T09:34:05.287Z,10.00
2019-03-31T09:36:35.461Z,10.10
2019-03-31T09:39:06.640Z,10.10
2019-03-31T09:41:36.736Z,10.00
2019-03-31T09:44:06.852Z,9.90
2019-03-31T09:46:36.985Z,9.70
2019-03-31T09:49:07.035Z,9.80
2019-03-31T09:51:37.081Z,9.60
2019-03-31T09:54:07.217Z,9.80
2019-03-31T09:56:37.351Z,10.00
2019-03-31T09:59:07.526Z,10.10
2019-03-31T10:01:37.677Z,10.10
2019-03-31T10:04:07.780Z,10.10
2019-03-31T10:06:38.122Z,10.10
2019-03-31T10:09:08.870Z,10.00
2019-03-31T10:11:39.232Z,10.00
2019-03-31T10:14:09.472Z,10.00
2019-03-31T10:16:39.646Z,9.90
2019-03-31T10:19:09.991Z,10.00
2019-03-31T10:21:40.248Z,10.00
2019-03-31T10:24:10.783Z,10.10
2019-03-31T10:26:40.957Z,10.10
2019-03-31T10:29:11.079Z,10.00
2019-03-31T10:31:41.235Z,10.00
2019-03-31T10:34:11.377Z,10.00
2019-03-31T10:36:44.818Z,10.00
2019-03-31T10:39:13.506Z,9.90
2019-03-31T10:41:43.635Z,9.90
2019-03-31T10:44:13.964Z,9.80
2019-03-31T10:46:44.105Z,9.90
2019-03-31T10:49:14.287Z,9.80
2019-03-31T10:51:44.363Z,9.90
2019-03-31T10:54:14.459Z,9.90
2019-03-31T10:56:44.715Z,9.90
2019-03-31T10:59:14.772Z,9.80
2019-03-31T11:01:44.954Z,9.70
2019-03-31T11:04:15.295Z,9.90
2019-03-31T11:06:58.457Z,10.00
2019-03-31T11:09:18.719Z,10.20
2019-03-31T11:11:49.019Z,10.30
2019-03-31T11:14:19.391Z,10.50
2019-03-31T11:16:49.548Z,10.60
2019-03-31T11:19:19.651Z,10.60
2019-03-31T11:22:04.024Z,10.50
2019-03-31T11:24:34.522Z,10.60
2019-03-31T11:27:04.993Z,10.50
2019-03-31T11:29:35.150Z,10.40
2019-03-31T11:32:05.430Z,10.40
2019-03-31T11:34:35.736Z,10.50
2019-03-31T11:37:13.376Z,10.40
2019-03-31T11:39:37.739Z,10.30
2019-03-31T11:42:07.953Z,10.30
2019-03-31T11:44:38.104Z,10.30
2019-03-31T11:47:08.396Z,10.30
2019-03-31T11:49:38.730Z,10.40
2019-03-31T11:52:08.888Z,10.50
2019-03-31T11:54:39.239Z,10.50
2019-03-31T11:57:09.456Z,10.40
2019-03-31T11:59:39.768Z,10.30
2019-03-31T12:02:10.038Z,10.30
2019-03-31T12:04:40.491Z,10.30
2019-03-31T12:07:11.404Z,10.40
2019-03-31T12:09:41.799Z,10.30
2019-03-31T12:12:11.950Z,10.50
2019-03-31T12:14:42.125Z,10.50
2019-03-31T12:17:12.683Z,10.70
2019-03-31T12:19:43.534Z,10.70
2019-03-31T12:22:13.851Z,10.60
2019-03-31T12:24:44.119Z,10.80
2019-03-31T12:27:14.415Z,10.80
2019-03-31T12:29:44.703Z,10.70
2019-03-31T12:32:14.966Z,10.70
2019-03-31T12:34:45.112Z,10.60
2019-03-31T12:37:15.410Z,10.60
2019-03-31T12:39:47.104Z,10.80
2019-03-31T12:42:17.467Z,10.90
2019-03-31T12:44:47.773Z,10.90
2019-03-31T12:47:18.055Z,11.00
2019-03-31T12:49:48.303Z,11.10
2019-03-31T12:52:18.732Z,11.20
2019-03-31T12:54:49.672Z,11.30
2019-03-31T12:57:19.903Z,11.20
2019-03-31T12:59:50.050Z,11.20
2019-03-31T13:02:20.274Z,11.10
2019-03-31T13:04:50.393Z,11.10
2019-03-31T13:07:20.519Z,11.40
2019-03-31T13:09:51.191Z,11.50
2019-03-31T13:12:24.139Z,11.80
2019-03-31T13:14:54.319Z,11.80
2019-03-31T13:17:24.515Z,12.00
2019-03-31T13:19:54.740Z,12.10
2019-03-31T13:22:25.006Z,12.20
2019-03-31T13:24:57.493Z,12.30
2019-03-31T13:27:27.792Z,12.50
2019-03-31T13:29:58.368Z,12.10
2019-03-31T13:32:28.513Z,11.80
2019-03-31T13:34:58.851Z,11.70
2019-03-31T13:37:28.925Z,11.60
2019-03-31T13:39:59.217Z,11.50
2019-03-31T13:42:29.424Z,11.60
2019-03-31T13:44:59.967Z,11.70
2019-03-31T13:47:30.193Z,11.90
2019-03-31T13:50:00.440Z,12.00
2019-03-31T13:52:30.630Z,12.10
2019-03-31T13:55:00.841Z,12.10
2019-03-31T13:57:31.970Z,12.20
2019-03-31T14:00:03.574Z,12.00
2019-03-31T14:02:33.757Z,11.80
2019-03-31T14:05:05.469Z,11.70
2019-03-31T14:07:35.827Z,11.50
2019-03-31T14:10:06.062Z,11.40
2019-03-31T14:12:36.211Z,11.50
2019-03-31T14:15:18.427Z,11.50
2019-03-31T14:17:39.458Z,11.50
2019-03-31T14:20:10.275Z,11.50
2019-03-31T14:22:40.359Z,11.60
2019-03-31T14:25:10.582Z,11.50
2019-03-31T14:27:40.854Z,11.30
2019-03-31T14:30:11.384Z,11.40
2019-03-31T14:32:41.505Z,11.50
2019-03-31T14:35:11.736Z,11.50
2019-03-31T14:37:41.918Z,11.50
2019-03-31T14:40:12.344Z,11.60
2019-03-31T14:42:42.590Z,11.60
2019-03-31T14:45:17.765Z,11.70
2019-03-31T14:47:48.078Z,11.50
2019-03-31T14:50:30.470Z,11.50
2019-03-31T14:53:00.536Z,11.70
2019-03-31T14:55:30.740Z,11.70
2019-03-31T14:58:00.848Z,11.80
2019-03-31T15:00:31.065Z,11.60
2019-03-31T15:03:01.461Z,11.50
2019-03-31T15:05:31.615Z,11.50
2019-03-31T15:08:01.805Z,11.50
2019-03-31T15:10:32.072Z,11.50
2019-03-31T15:13:03.567Z,11.60
2019-03-31T15:15:34.713Z,11.60
2019-03-31T15:18:05.183Z,11.50
2019-03-31T15:20:35.280Z,11.40
2019-03-31T15:23:05.340Z,11.30
2019-03-31T15:25:35.856Z,11.40
2019-03-31T15:28:06.184Z,11.50
2019-03-31T15:30:36.540Z,11.40
2019-03-31T15:33:06.727Z,11.40
2019-03-31T15:35:37.904Z,11.30
2019-03-31T15:38:08.430Z,11.20
2019-03-31T15:40:38.652Z,11.10
2019-03-31T15:43:09.104Z,11.10
2019-03-31T15:45:39.288Z,11.20
2019-03-31T15:48:09.903Z,11.40
2019-03-31T15:50:40.125Z,11.40
2019-03-31T15:53:10.328Z,11.50
2019-03-31T15:55:40.315Z,11.50
2019-03-31T15:58:10.578Z,11.30
2019-03-31T16:00:40.902Z,11.40
2019-03-31T16:03:11.040Z,11.50
2019-03-31T16:05:41.326Z,11.50
2019-03-31T16:08:11.001Z,11.40
2019-03-31T16:10:40.745Z,11.20
2019-03-31T16:13:10.520Z,11.10
2019-03-31T16:15:40.170Z,11.00
2019-03-31T16:18:10.087Z,11.00
2019-03-31T16:20:39.868Z,10.80
2019-03-31T16:23:09.516Z,10.80
2019-03-31T16:25:41.800Z,10.80
2019-03-31T16:28:11.851Z,10.80
2019-03-31T16:30:41.684Z,10.80
2019-03-31T16:33:11.236Z,10.80
2019-03-31T16:35:41.029Z,10.80
2019-03-31T16:38:10.669Z,10.70
2019-03-31T16:40:40.338Z,10.80
2019-03-31T16:43:10.114Z,10.80
2019-03-31T16:45:39.828Z,10.60
2019-03-31T16:48:09.761Z,10.60
2019-03-31T16:50:39.462Z,10.60
2019-03-31T16:53:09.401Z,10.60
2019-03-31T16:55:39.151Z,10.60
2019-03-31T16:58:10.005Z,10.60
2019-03-31T17:00:39.559Z,10.60
2019-03-31T17:03:09.254Z,10.70
2019-03-31T17:05:38.895Z,10.70
2019-03-31T17:08:11.617Z,10.80
2019-03-31T17:10:41.229Z,10.80
2019-03-31T17:13:10.811Z,10.80
2019-03-31T17:15:40.579Z,10.70
2019-03-31T17:18:10.259Z,10.60
2019-03-31T17:20:41.653Z,10.60
2019-03-31T17:23:11.505Z,10.50
2019-03-31T17:25:41.110Z,10.50
2019-03-31T17:28:10.795Z,10.40
2019-03-31T17:30:41.974Z,10.40
2019-03-31T17:33:11.801Z,10.40
2019-03-31T17:35:41.756Z,10.40
2019-03-31T17:38:11.442Z,10.50
2019-03-31T17:40:41.317Z,10.50
2019-03-31T17:43:14.513Z,10.50
2019-03-31T17:45:44.353Z,10.50
2019-03-31T17:48:14.011Z,10.50
2019-03-31T17:50:43.959Z,10.40
2019-03-31T17:53:14.913Z,10.40
2019-03-31T17:55:45.203Z,10.30
2019-03-31T17:58:15.591Z,10.30
2019-03-31T18:00:45.845Z,10.30
2019-03-31T18:03:16.610Z,10.20
2019-03-31T18:05:46.662Z,10.20
2019-03-31T18:08:16.840Z,10.10
2019-03-31T18:10:46.670Z,10.00
2019-03-31T18:13:16.390Z,9.90
2019-03-31T18:15:46.882Z,9.80
2019-03-31T18:18:20.111Z,9.80
2019-03-31T18:20:50.864Z,9.70
2019-03-31T18:23:22.857Z,9.60
2019-03-31T18:25:54.202Z,9.50
2019-03-31T18:28:28.386Z,9.50
2019-03-31T18:31:03.093Z,9.50
2019-03-31T18:33:37.446Z,9.50
2019-03-31T18:36:10.917Z,9.40
2019-03-31T18:38:44.427Z,9.40
2019-03-31T18:41:15.630Z,9.40
2019-03-31T18:43:51.677Z,9.30
2019-03-31T18:46:19.413Z,9.30
2019-03-31T18:48:50.045Z,9.30
2019-03-31T18:51:23.980Z,9.30
2019-03-31T18:54:23.634Z,9.20
2019-03-31T18:57:16.547Z,9.10
2019-03-31T19:00:04.709Z,9.10
2019-03-31T19:02:45.473Z,9.00
2019-03-31T19:05:43.045Z,9.00
2019-03-31T19:08:31.224Z,9.00
2019-03-31T19:11:31.491Z,9.00
2019-03-31T19:14:15.358Z,8.90
2019-03-31T19:16:58.538Z,8.80
2019-03-31T19:19:38.145Z,8.80
2019-03-31T19:22:15.314Z,8.80
2019-03-31T19:25:02.933Z,8.70
2019-03-31T19:28:06.838Z,8.70
2019-03-31T19:31:04.315Z,8.60
2019-03-31T19:33:55.175Z,8.60
2019-03-31T19:36:51.215Z,8.40
2019-03-31T19:39:40.353Z,8.40
2019-03-31T19:42:40.982Z,8.40
2019-03-31T19:45:36.185Z,8.30
2019-03-31T19:48:21.341Z,8.30
2019-03-31T19:51:02.600Z,8.20
2019-03-31T19:53:59.205Z,8.10
2019-03-31T19:57:02.671Z,8.10
2019-03-31T19:59:58.645Z,8.00
2019-03-31T20:02:47.674Z,8.00
2019-03-31T20:05:43.116Z,8.00
2019-03-31T20:08:37.989Z,7.90
2019-03-31T20:11:21.229Z,7.80
2019-03-31T20:14:08.381Z,7.80
2019-03-31T20:16:48.159Z,7.70
2019-03-31T20:19:35.689Z,7.60
2019-03-31T20:22:11.340Z,7.60
2019-03-31T20:24:57.388Z,7.60
2019-03-31T20:27:45.863Z,7.50
2019-03-31T20:30:35.374Z,7.50
2019-03-31T20:33:23.631Z,7.40
2019-03-31T20:36:14.119Z,7.50
2019-03-31T20:39:09.508Z,7.40
2019-03-31T20:41:48.589Z,7.40
2019-03-31T20:44:18.121Z,7.30
2019-03-31T20:46:48.000Z,7.30
2019-03-31T20:49:21.598Z,7.40
2019-03-31T20:51:51.244Z,7.30
2019-03-31T20:54:21.445Z,7.20
2019-03-31T20:56:51.753Z,7.20
2019-03-31T20:59:21.319Z,7.20
2019-03-31T21:01:52.439Z,7.20
2019-03-31T21:04:22.172Z,7.20
2019-03-31T21:06:51.753Z,7.20
2019-03-31T21:09:21.390Z,7.10
2019-03-31T21:11:51.086Z,7.10
2019-03-31T21:14:20.768Z,7.10
2019-03-31T21:16:50.285Z,7.00
2019-03-31T21:19:20.162Z,7.10
2019-03-31T21:21:49.705Z,7.00
2019-03-31T21:24:19.237Z,7.00
2019-03-31T21:26:49.964Z,6.90
2019-03-31T21:29:20.381Z,6.90
2019-03-31T21:31:49.847Z,6.80
2019-03-31T21:34:19.367Z,6.80
2019-03-31T21:36:48.855Z,6.80
2019-03-31T21:39:18.259Z,6.80
2019-03-31T21:41:47.807Z,6.80
2019-03-31T21:44:17.359Z,6.70
2019-03-31T21:46:46.799Z,6.60
2019-03-31T21:49:16.286Z,6.60
2019-03-31T21:51:45.952Z,6.50
2019-03-31T21:54:15.452Z,6.50
2019-03-31T21:56:44.894Z,6.50
2019-03-31T21:59:14.429Z,6.50
2019-03-31T22:01:43.830Z,6.50
2019-03-31T22:04:13.227Z,6.50
2019-03-31T22:06:42.728Z,6.50
2019-03-31T22:09:12.255Z,6.40
2019-03-31T22:11:41.626Z,6.30
2019-03-31T22:14:11.025Z,6.30
2019-03-31T22:16:40.730Z,6.20
2019-03-31T22:19:10.145Z,6.20
2019-03-31T22:21:39.585Z,6.10
2019-03-31T22:24:12.254Z,6.10
2019-03-31T22:26:43.164Z,6.00
2019-03-31T22:29:12.551Z,6.00
2019-03-31T22:31:41.972Z,6.00
2019-03-31T22:34:11.358Z,5.90
2019-03-31T22:36:41.902Z,5.90
2019-03-31T22:39:11.921Z,5.80
2019-03-31T22:41:41.413Z,5.70
2019-03-31T22:44:11.343Z,5.70
2019-03-31T22:46:53.623Z,5.60
2019-03-31T22:49:14.036Z,5.50
2019-03-31T22:51:43.814Z,5.50
2019-03-31T22:54:14.048Z,5.40
2019-03-31T22:56:43.813Z,5.30
2019-03-31T22:59:13.607Z,5.30
2019-03-31T23:01:43.539Z,5.20
2019-03-31T23:04:13.077Z,5.20
2019-03-31T23:06:43.305Z,5.20
2019-03-31T23:09:13.658Z,5.20
2019-03-31T23:11:43.075Z,5.20
2019-03-31T23:14:13.725Z,5.20
2019-03-31T23:16:43.075Z,5.20
2019-03-31T23:19:12.522Z,5.10
2019-03-31T23:21:41.937Z,5.10
2019-03-31T23:24:11.383Z,5.00
2019-03-31T23:26:41.014Z,5.00
2019-03-31T23:29:10.378Z,5.00
2019-03-31T23:31:39.948Z,5.00
2019-03-31T23:34:09.386Z,4.90
2019-03-31T23:36:38.804Z,4.90
2019-03-31T23:39:08.538Z,4.80
2019-03-31T23:41:38.036Z,4.70
2019-03-31T23:44:07.392Z,4.70
2019-03-31T23:46:37.227Z,4.60
2019-03-31T23:49:06.644Z,4.50
2019-03-31T23:51:36.006Z,4.50
2019-03-31T23:54:05.449Z,4.50
2019-03-31T23:56:34.885Z,4.50
2019-03-31T23:59:04.388Z,4.40
